Time,TemperatureF,DewpointF,PressureIn,WindDirection,WindDirectionDegrees,WindSpeedMPH,WindSpeedGustMPH,Humidity,HourlyPrecipIn,Conditions,Clouds,dailyrainin,SoftwareType,DateUTC
2013-07-08 00:02:00,78.0,70.0,29.90,SW,219,1.0,-999.0,77,-99.99,,,-99.99,,2013-07-08 04:02:00,
2013-07-08 00:12:00,78.0,71.0,29.90,WNW,292,1.0,-999.0,78,-99.99,,,-99.99,,2013-07-08 04:12:00,
2013-07-08 00:22:00,78.0,71.0,29.90,WNW,292,1.0,-999.0,78,-99.99,,,-99.99,,2013-07-08 04:22:00,
2013-07-08 00:33:00,77.0,70.0,29.91,WSW,250,1.0,-999.0,79,-99.99,,,-99.99,,2013-07-08 04:33:00,
2013-07-08 00:42:00,77.0,70.0,29.91,South,186,1.0,-999.0,80,-99.99,,,-99.99,,2013-07-08 04:42:00,
2013-07-08 00:53:00,76.0,70.0,29.90,WSW,248,1.0,-999.0,82,-99.99,,,-99.99,,2013-07-08 04:53:00,
2013-07-08 01:01:00,76.0,70.0,29.90,WSW,248,1.0,-999.0,82,-99.99,,,-99.99,,2013-07-08 05:01:00,
2013-07-08 01:12:00,76.0,70.0,29.90,West,277,1.0,-999.0,83,-99.99,,,-99.99,,2013-07-08 05:12:00,
2013-07-08 01:22:00,75.0,69.0,29.91,NE,47,1.0,-999.0,83,-99.99,,,-99.99,,2013-07-08 05:22:00,
2013-07-08 01:33:00,75.0,69.0,29.91,NE,47,1.0,-999.0,83,-99.99,,,-99.99,,2013-07-08 05:33:00,
2013-07-08 01:43:00,75.0,70.0,29.91,WSW,238,1.0,-999.0,84,-99.99,,,-99.99,,2013-07-08 05:43:00,
2013-07-08 01:53:00,75.0,70.0,29.91,WNW,288,1.0,-999.0,84,-99.99,,,-99.99,,2013-07-08 05:53:00,
2013-07-08 02:01:00,75.0,70.0,29.91,WNW,288,1.0,-999.0,84,-99.99,,,-99.99,,2013-07-08 06:01:00,
2013-07-08 02:12:00,74.0,69.0,29.91,SE,126,0.0,-999.0,85,-99.99,,,-99.99,,2013-07-08 06:12:00,
2013-07-08 02:22:00,74.0,69.0,29.91,SSE,162,0.0,-999.0,85,-99.99,,,-99.99,,2013-07-08 06:22:00,
2013-07-08 02:34:00,74.0,69.0,29.91,SSE,162,0.0,-999.0,85,-99.99,,,-99.99,,2013-07-08 06:34:00,
2013-07-08 02:43:00,74.0,69.0,29.90,WSW,252,0.0,-999.0,85,-99.99,,,-99.99,,2013-07-08 06:43:00,
2013-07-08 02:53:00,73.0,68.0,29.91,NW,313,0.0,-999.0,85,-99.99,,,-99.99,,2013-07-08 06:53:00,
2013-07-08 03:02:00,73.0,68.0,29.91,NW,313,0.0,-999.0,85,-99.99,,,-99.99,,2013-07-08 07:02:00,
2013-07-08 03:12:00,73.0,69.0,29.91,SW,228,0.0,-999.0,86,-99.99,,,-99.99,,2013-07-08 07:12:00,
2013-07-08 03:22:00,72.0,68.0,29.91,SSW,202,0.0,-999.0,86,-99.99,,,-99.99,,2013-07-08 07:22:00,
2013-07-08 03:34:00,72.0,68.0,29.91,SSW,202,0.0,-999.0,86,-99.99,,,-99.99,,2013-07-08 07:34:00,
2013-07-08 03:44:00,72.0,68.0,29.91,SSW,194,0.0,-999.0,86,-99.99,,,-99.99,,2013-07-08 07:44:00,
2013-07-08 03:53:00,72.0,68.0,29.91,SSW,202,0.0,-999.0,87,-99.99,,,-99.99,,2013-07-08 07:53:00,
2013-07-08 04:02:00,72.0,68.0,29.91,SSW,202,0.0,-999.0,87,-99.99,,,-99.99,,2013-07-08 08:02:00,
2013-07-08 04:12:00,72.0,68.0,29.91,SSW,198,0.0,-999.0,87,-99.99,,,-99.99,,2013-07-08 08:12:00,
2013-07-08 04:22:00,72.0,68.0,29.91,WSW,254,0.0,-999.0,88,-99.99,,,-99.99,,2013-07-08 08:22:00,
2013-07-08 04:33:00,72.0,68.0,29.91,WSW,254,0.0,-999.0,88,-99.99,,,-99.99,,2013-07-08 08:33:00,
2013-07-08 04:42:00,72.0,68.0,29.92,SW,229,0.0,-999.0,88,-99.99,,,-99.99,,2013-07-08 08:42:00,
2013-07-08 04:53:00,71.0,68.0,29.92,SW,222,0.0,-999.0,89,-99.99,,,-99.99,,2013-07-08 08:53:00,
2013-07-08 05:02:00,71.0,68.0,29.92,SW,222,0.0,-999.0,89,-99.99,,,-99.99,,2013-07-08 09:02:00,
2013-07-08 05:11:00,71.0,68.0,29.92,SW,236,0.0,-999.0,89,-99.99,,,-99.99,,2013-07-08 09:11:00,
2013-07-08 05:22:00,71.0,68.0,29.92,SE,128,0.0,-999.0,90,-99.99,,,-99.99,,2013-07-08 09:22:00,
2013-07-08 05:34:00,71.0,68.0,29.92,SE,128,0.0,-999.0,90,-99.99,,,-99.99,,2013-07-08 09:34:00,
2013-07-08 05:43:00,71.0,68.0,29.92,SW,234,0.0,-999.0,91,-99.99,,,-99.99,,2013-07-08 09:43:00,
2013-07-08 05:53:00,71.0,68.0,29.93,WNW,298,0.0,-999.0,91,-99.99,,,-99.99,,2013-07-08 09:53:00,
2013-07-08 06:02:00,71.0,68.0,29.93,WNW,298,0.0,-999.0,91,-99.99,,,-99.99,,2013-07-08 10:02:00,
2013-07-08 06:11:00,71.0,68.0,29.94,WNW,289,1.0,-999.0,91,-99.99,,,-99.99,,2013-07-08 10:11:00,
2013-07-08 06:22:00,71.0,69.0,29.93,SSW,207,0.0,-999.0,92,-99.99,,,-99.99,,2013-07-08 10:22:00,
2013-07-08 06:34:00,71.0,69.0,29.93,SSW,207,0.0,-999.0,92,-99.99,,,-99.99,,2013-07-08 10:34:00,
2013-07-08 06:43:00,71.0,68.0,29.94,South,171,1.0,-999.0,91,-99.99,,,-99.99,,2013-07-08 10:43:00,
2013-07-08 06:53:00,71.0,69.0,29.94,NNE,19,0.0,-999.0,92,-99.99,,,-99.99,,2013-07-08 10:53:00,
2013-07-08 07:02:00,71.0,69.0,29.94,NNE,19,0.0,-999.0,92,-99.99,,,-99.99,,2013-07-08 11:02:00,
2013-07-08 07:11:00,71.0,68.0,29.94,WNW,303,1.0,-999.0,91,-99.99,,,-99.99,,2013-07-08 11:11:00,
2013-07-08 07:33:00,72.0,69.0,29.94,WSW,249,0.0,-999.0,91,-99.99,,,-99.99,,2013-07-08 11:33:00,
2013-07-08 07:43:00,73.0,70.0,29.94,WSW,250,1.0,-999.0,89,-99.99,,,-99.99,,2013-07-08 11:43:00,
2013-07-08 08:02:00,74.0,70.0,29.94,NE,34,0.0,-999.0,88,-99.99,,,-99.99,,2013-07-08 12:02:00,
2013-07-08 08:22:00,74.0,70.0,29.93,NNE,17,0.0,-999.0,88,-99.99,,,-99.99,,2013-07-08 12:22:00,
2013-07-08 08:34:00,75.0,70.0,29.94,WSW,253,1.0,-999.0,85,-99.99,,,-99.99,,2013-07-08 12:34:00,
2013-07-08 08:43:00,76.0,71.0,29.95,SW,227,1.0,-999.0,84,-99.99,,,-99.99,,2013-07-08 12:43:00,
2013-07-08 08:53:00,76.0,71.0,29.95,SW,227,1.0,-999.0,84,-99.99,,,-99.99,,2013-07-08 12:53:00,
2013-07-08 09:02:00,77.0,71.0,29.95,NW,316,1.0,-999.0,83,-99.99,,,-99.99,,2013-07-08 13:02:00,
2013-07-08 09:11:00,77.0,71.0,29.95,NW,316,1.0,-999.0,83,-99.99,,,-99.99,,2013-07-08 13:11:00,
2013-07-08 09:22:00,77.0,71.0,29.95,WSW,240,0.0,-999.0,82,-99.99,,,-99.99,,2013-07-08 13:22:00,
2013-07-08 09:42:00,79.0,72.0,29.95,WNW,288,1.0,-999.0,79,-99.99,,,-99.99,,2013-07-08 13:42:00,
2013-07-08 09:53:00,79.0,72.0,29.95,WNW,288,1.0,-999.0,79,-99.99,,,-99.99,,2013-07-08 13:53:00,
2013-07-08 10:02:00,80.0,72.0,29.94,SSW,205,1.0,-999.0,78,-99.99,,,-99.99,,2013-07-08 14:02:00,
2013-07-08 10:12:00,80.0,72.0,29.94,SSW,205,1.0,-999.0,78,-99.99,,,-99.99,,2013-07-08 14:12:00,
2013-07-08 10:23:00,81.0,73.0,29.94,SSW,211,2.0,-999.0,76,-99.99,,,-99.99,,2013-07-08 14:23:00,
2013-07-08 10:34:00,83.0,73.0,29.94,North,11,1.0,-999.0,73,-99.99,,,-99.99,,2013-07-08 14:34:00,
2013-07-08 10:43:00,83.0,73.0,29.94,SSW,211,0.0,-999.0,73,-99.99,,,-99.99,,2013-07-08 14:43:00,
2013-07-08 10:53:00,83.0,73.0,29.94,SSW,211,0.0,-999.0,73,-99.99,,,-99.99,,2013-07-08 14:53:00,
2013-07-08 11:11:00,83.0,72.0,29.94,WNW,294,1.0,-999.0,70,-99.99,,,-99.99,,2013-07-08 15:11:00,
2013-07-08 11:53:00,86.0,73.0,29.95,SW,220,1.0,-999.0,66,-99.99,,,-99.99,,2013-07-08 15:53:00,
2013-07-08 12:02:00,85.0,73.0,29.95,SW,215,1.0,-999.0,67,-99.99,,,-99.99,,2013-07-08 16:02:00,
2013-07-08 12:11:00,85.0,73.0,29.95,SW,215,1.0,-999.0,67,-99.99,,,-99.99,,2013-07-08 16:11:00,
2013-07-08 12:22:00,85.0,71.0,29.95,NNE,22,4.0,-999.0,63,-99.99,,,-99.99,,2013-07-08 16:22:00,
2013-07-08 12:43:00,87.0,72.0,29.94,SSW,198,3.0,-999.0,62,-99.99,,,-99.99,,2013-07-08 16:43:00,
2013-07-08 12:56:00,87.0,72.0,29.94,SSW,198,3.0,-999.0,62,-99.99,,,-99.99,,2013-07-08 16:56:00,
2013-07-08 13:14:00,87.0,72.0,29.94,West,268,2.0,-999.0,61,-99.99,,,-99.99,,2013-07-08 17:14:00,
2013-07-08 13:47:00,86.0,72.0,29.93,WSW,250,1.0,-999.0,64,-99.99,,,-99.99,,2013-07-08 17:47:00,
2013-07-08 13:54:00,86.0,72.0,29.93,WSW,250,1.0,-999.0,64,-99.99,,,-99.99,,2013-07-08 17:54:00,
2013-07-08 14:13:00,87.0,72.0,29.92,SW,222,2.0,-999.0,61,-99.99,,,-99.99,,2013-07-08 18:13:00,
2013-07-08 14:45:00,88.0,73.0,29.91,SSW,210,2.0,-999.0,61,-99.99,,,-99.99,,2013-07-08 18:45:00,
2013-07-08 14:58:00,89.0,72.0,29.91,North,355,2.0,-999.0,57,-99.99,,,-99.99,,2013-07-08 18:58:00,
2013-07-08 15:53:00,90.0,73.0,29.91,WSW,256,1.0,-999.0,58,-99.99,,,-99.99,,2013-07-08 19:53:00,
2013-07-08 17:45:00,72.0,70.0,29.90,SE,126,0.0,-999.0,94,-99.99,,,-99.99,,2013-07-08 21:45:00,
2013-07-08 18:03:00,73.0,71.0,29.89,WSW,257,0.0,-999.0,94,-99.99,,,-99.99,,2013-07-08 22:03:00,
2013-07-08 18:34:00,74.0,72.0,29.90,WSW,257,0.0,-999.0,94,-99.99,,,-99.99,,2013-07-08 22:34:00,
2013-07-08 18:55:00,74.0,72.0,29.91,East,88,1.0,-999.0,94,-99.99,,,-99.99,,2013-07-08 22:55:00,
2013-07-08 19:02:00,74.0,72.0,29.91,East,88,1.0,-999.0,94,-99.99,,,-99.99,,2013-07-08 23:02:00,
2013-07-08 19:18:00,73.0,71.0,29.91,South,178,0.0,-999.0,94,-99.99,,,-99.99,,2013-07-08 23:18:00,
2013-07-08 19:23:00,73.0,71.0,29.91,South,180,0.0,-999.0,94,-99.99,,,-99.99,,2013-07-08 23:23:00,
2013-07-08 19:34:00,73.0,71.0,29.91,South,180,0.0,-999.0,94,-99.99,,,-99.99,,2013-07-08 23:34:00,
2013-07-08 19:55:00,74.0,72.0,29.92,SSW,211,0.0,-999.0,94,-99.99,,,-99.99,,2013-07-08 23:55:00,
2013-07-08 20:02:00,74.0,72.0,29.92,SSW,211,0.0,-999.0,94,-99.99,,,-99.99,,2013-07-09 00:02:00,
2013-07-08 20:19:00,74.0,72.0,29.92,SSW,213,0.0,-999.0,94,-99.99,,,-99.99,,2013-07-09 00:19:00,
2013-07-08 21:02:00,73.0,71.0,29.91,SW,229,0.0,-999.0,94,-99.99,,,-99.99,,2013-07-09 01:02:00,
2013-07-08 21:18:00,73.0,71.0,29.92,SW,229,0.0,-999.0,94,-99.99,,,-99.99,,2013-07-09 01:18:00,
2013-07-08 21:36:00,72.0,70.0,29.93,SW,229,0.0,-999.0,94,-99.99,,,-99.99,,2013-07-09 01:36:00,
2013-07-08 22:31:00,-999.0,-99.9,29.95,SW,229,0.0,-999.0,94,-99.99,,,-99.99,,2013-07-09 02:31:00,
2013-07-08 22:57:00,71.0,69.0,29.96,SSW,205,0.0,-999.0,95,-99.99,,,-99.99,,2013-07-09 02:57:00,
2013-07-08 23:17:00,71.0,69.0,29.96,WSW,249,0.0,-999.0,95,-99.99,,,-99.99,,2013-07-09 03:17:00,
2013-07-08 23:35:00,70.0,68.0,29.96,North,355,0.0,-999.0,95,-99.99,,,-99.99,,2013-07-09 03:35:00,
2013-07-08 23:45:00,70.0,68.0,29.96,NNW,336,0.0,-999.0,94,-99.99,,,-99.99,,2013-07-09 03:45:00,
2013-07-08 23:54:00,70.0,68.0,29.96,NNW,336,0.0,-999.0,94,-99.99,,,-99.99,,2013-07-09 03:54:00,